createdAt,value
2023-04-07T00:00:17.356Z,19.83
2023-04-07T00:01:17.303Z,19.86
2023-04-07T00:02:17.532Z,19.82
2023-04-07T00:03:17.411Z,19.86
2023-04-07T00:04:18.401Z,19.86
2023-04-07T00:05:17.625Z,19.83
2023-04-07T00:06:17.312Z,19.92
2023-04-07T00:07:17.270Z,19.87
2023-04-07T00:08:17.280Z,19.85
2023-04-07T00:09:17.248Z,19.87
2023-04-07T00:10:17.278Z,19.89
2023-04-07T00:11:17.287Z,19.87
2023-04-07T00:12:17.384Z,19.83
2023-04-07T00:13:19.201Z,19.89
2023-04-07T00:14:17.300Z,19.87
2023-04-07T00:15:17.668Z,19.86
2023-04-07T00:16:17.363Z,19.90
2023-04-07T00:17:18.187Z,19.85
2023-04-07T00:18:17.339Z,19.92
2023-04-07T00:19:17.296Z,19.87
2023-04-07T00:20:17.271Z,19.89
2023-04-07T00:21:17.289Z,19.87
2023-04-07T00:22:17.266Z,19.87
2023-04-07T00:23:17.324Z,19.88
2023-04-07T00:24:27.472Z,19.88
2023-04-07T00:25:18.286Z,19.89
2023-04-07T00:26:17.418Z,19.92
2023-04-07T00:27:17.241Z,19.98
2023-04-07T00:28:17.250Z,19.89
2023-04-07T00:29:17.224Z,19.95
2023-04-07T00:30:18.160Z,20.00
2023-04-07T00:31:17.318Z,19.96
2023-04-07T00:32:17.243Z,19.96
2023-04-07T00:33:17.280Z,19.95
2023-04-07T00:34:17.268Z,19.98
2023-04-07T00:35:20.142Z,19.96
2023-04-07T00:36:17.235Z,20.01
2023-04-07T00:37:17.239Z,19.95
2023-04-07T00:38:17.241Z,19.98
2023-04-07T00:39:17.226Z,19.98
2023-04-07T00:40:17.176Z,19.96
2023-04-07T00:41:17.143Z,20.01
2023-04-07T00:42:17.150Z,19.99
2023-04-07T00:43:17.117Z,19.98
2023-04-07T00:44:17.131Z,20.00
2023-04-07T00:45:17.190Z,19.93
2023-04-07T00:46:17.157Z,20.04
2023-04-07T00:47:17.108Z,20.00
2023-04-07T00:48:17.089Z,20.01
2023-04-07T00:49:17.098Z,20.00
2023-04-07T00:50:17.095Z,19.98
2023-04-07T00:51:17.094Z,20.04
2023-04-07T00:52:17.078Z,20.01
2023-04-07T00:53:17.074Z,20.02
2023-04-07T00:54:17.093Z,20.01
2023-04-07T00:55:17.074Z,20.01
2023-04-07T00:56:17.054Z,20.04
2023-04-07T00:57:17.038Z,20.00
2023-04-07T00:58:17.014Z,20.00
2023-04-07T00:59:17.115Z,20.05
2023-04-07T01:00:17.033Z,20.04
2023-04-07T01:01:17.098Z,20.01
2023-04-07T01:02:17.114Z,20.00
2023-04-07T01:03:17.906Z,20.07
2023-04-07T01:04:17.187Z,20.05
2023-04-07T01:05:17.017Z,20.04
2023-04-07T01:06:16.975Z,20.04
2023-04-07T01:07:16.991Z,20.04
2023-04-07T01:08:16.945Z,20.04
2023-04-07T01:09:16.982Z,20.02
2023-04-07T01:10:16.957Z,20.02
2023-04-07T01:11:16.975Z,20.04
2023-04-07T01:12:16.922Z,20.07
2023-04-07T01:13:16.899Z,20.08
2023-04-07T01:14:17.667Z,20.10
2023-04-07T01:15:16.959Z,20.08
2023-04-07T01:16:17.275Z,20.05
2023-04-07T01:17:16.872Z,20.05
2023-04-07T01:18:16.859Z,20.08
2023-04-07T01:19:16.937Z,20.04
2023-04-07T01:20:16.886Z,20.07
2023-04-07T01:21:16.871Z,20.08
2023-04-07T01:22:16.842Z,20.07
2023-04-07T01:23:16.863Z,20.10
2023-04-07T01:24:16.849Z,20.07
2023-04-07T01:25:16.860Z,20.05
2023-04-07T01:26:16.830Z,20.11
2023-04-07T01:27:16.872Z,20.08
2023-04-07T01:28:16.851Z,20.04
2023-04-07T01:29:16.848Z,20.07
2023-04-07T01:30:16.801Z,20.10
2023-04-07T01:31:16.864Z,20.17
2023-04-07T01:32:16.786Z,20.06
2023-04-07T01:33:16.778Z,20.07
2023-04-07T01:34:17.701Z,20.10
2023-04-07T01:35:16.783Z,20.09
2023-04-07T01:36:17.173Z,20.08
2023-04-07T01:37:16.806Z,20.16
2023-04-07T01:38:16.799Z,20.12
2023-04-07T01:39:16.749Z,20.10
2023-04-07T01:40:16.726Z,20.13
2023-04-07T01:41:16.736Z,20.13
2023-04-07T01:42:16.712Z,20.15
2023-04-07T01:43:16.725Z,20.13
2023-04-07T01:44:16.712Z,20.09
2023-04-07T01:45:16.742Z,20.16
2023-04-07T01:46:17.690Z,20.09
2023-04-07T01:47:16.729Z,20.13
2023-04-07T01:48:16.737Z,20.13
2023-04-07T01:49:16.663Z,20.17
2023-04-07T01:50:16.631Z,20.16
2023-04-07T01:51:16.644Z,20.09
2023-04-07T01:52:16.720Z,20.13
2023-04-07T01:53:16.745Z,20.15
2023-04-07T01:54:16.638Z,20.15
2023-04-07T01:55:16.662Z,20.17
2023-04-07T01:56:16.636Z,20.15
2023-04-07T01:57:16.599Z,20.17
2023-04-07T01:58:16.581Z,20.14
2023-04-07T01:59:16.602Z,20.15
2023-04-07T02:00:16.569Z,20.22
2023-04-07T02:01:16.626Z,20.17
2023-04-07T02:02:16.593Z,20.17
2023-04-07T02:03:16.618Z,20.17
2023-04-07T02:04:16.575Z,20.20
2023-04-07T02:05:16.542Z,20.20
2023-04-07T02:06:16.533Z,20.17
2023-04-07T02:07:16.562Z,20.20
2023-04-07T02:08:16.524Z,20.22
2023-04-07T02:09:16.516Z,20.20
2023-04-07T02:10:16.500Z,20.20
2023-04-07T02:11:16.484Z,20.23
2023-04-07T02:12:16.477Z,20.16
2023-04-07T02:13:16.488Z,20.17
2023-04-07T02:14:16.471Z,20.19
2023-04-07T02:15:16.471Z,20.23
2023-04-07T02:16:16.535Z,20.19
2023-04-07T02:17:16.463Z,20.20
2023-04-07T02:18:16.445Z,20.20
2023-04-07T02:19:16.444Z,20.17
2023-04-07T02:20:16.411Z,20.22
2023-04-07T02:21:16.431Z,20.17
2023-04-07T02:22:16.398Z,20.25
2023-04-07T02:23:16.478Z,20.28
2023-04-07T02:24:16.400Z,20.27
2023-04-07T02:25:16.400Z,20.22
2023-04-07T02:26:16.368Z,20.23
2023-04-07T02:27:16.352Z,20.26
2023-04-07T02:28:16.373Z,20.25
2023-04-07T02:29:16.357Z,20.20
2023-04-07T02:30:16.342Z,20.20
2023-04-07T02:31:16.397Z,20.23
2023-04-07T02:32:16.347Z,20.28
2023-04-07T02:33:16.372Z,20.28
2023-04-07T02:34:16.335Z,20.22
2023-04-07T02:35:17.207Z,20.25
2023-04-07T02:36:16.710Z,20.23
2023-04-07T02:37:16.286Z,20.31
2023-04-07T02:38:16.332Z,20.25
2023-04-07T02:39:16.271Z,20.26
2023-04-07T02:40:16.302Z,20.30
2023-04-07T02:41:16.267Z,20.27
2023-04-07T02:42:16.287Z,20.29
2023-04-07T02:43:17.204Z,20.29
2023-04-07T02:44:16.294Z,20.26
2023-04-07T02:45:16.224Z,20.30
2023-04-07T02:46:16.716Z,20.35
2023-04-07T02:47:16.201Z,20.32
2023-04-07T02:48:16.236Z,20.30
2023-04-07T02:49:16.220Z,20.31
2023-04-07T02:50:16.195Z,20.25
2023-04-07T02:51:16.193Z,20.28
2023-04-07T02:52:16.209Z,20.29
2023-04-07T02:53:16.208Z,20.24
2023-04-07T02:54:16.168Z,20.29
2023-04-07T02:55:16.179Z,20.31
2023-04-07T02:56:16.295Z,20.31
2023-04-07T02:57:16.155Z,20.28
2023-04-07T02:58:16.164Z,20.32
2023-04-07T02:59:16.129Z,20.31
2023-04-07T03:00:16.149Z,20.29
2023-04-07T03:01:16.181Z,20.26
2023-04-07T03:02:16.175Z,20.28
2023-04-07T03:03:16.263Z,20.25
2023-04-07T03:04:16.224Z,20.29
2023-04-07T03:05:16.092Z,20.32
2023-04-07T03:06:16.121Z,20.31
2023-04-07T03:07:16.075Z,20.28
2023-04-07T03:08:16.091Z,20.29
2023-04-07T03:09:16.069Z,20.29
2023-04-07T03:10:16.034Z,20.31
2023-04-07T03:11:16.084Z,20.34
2023-04-07T03:12:16.088Z,20.34
2023-04-07T03:13:16.037Z,20.28
2023-04-07T03:14:16.036Z,20.29
2023-04-07T03:15:17.083Z,20.32
2023-04-07T03:16:16.288Z,20.31
2023-04-07T03:17:16.224Z,20.34
2023-04-07T03:18:16.239Z,20.31
2023-04-07T03:19:16.267Z,20.34
2023-04-07T03:20:16.331Z,20.27
2023-04-07T03:21:16.256Z,20.32
2023-04-07T03:22:16.250Z,20.29
2023-04-07T03:23:16.270Z,20.29
2023-04-07T03:24:16.259Z,20.34
2023-04-07T03:25:16.267Z,20.34
2023-04-07T03:26:16.328Z,20.34
2023-04-07T03:27:16.301Z,20.32
2023-04-07T03:28:16.271Z,20.34
2023-04-07T03:29:16.293Z,20.31
2023-04-07T03:30:16.356Z,20.34
2023-04-07T03:31:17.316Z,20.39
2023-04-07T03:32:16.298Z,20.38
2023-04-07T03:33:16.312Z,20.36
2023-04-07T03:34:16.276Z,20.32
2023-04-07T03:35:17.199Z,20.32
2023-04-07T03:36:16.343Z,20.34
2023-04-07T03:37:16.323Z,20.38
2023-04-07T03:38:16.302Z,20.34
2023-04-07T03:39:16.317Z,20.41
2023-04-07T03:40:16.350Z,20.34
2023-04-07T03:41:16.365Z,20.35
2023-04-07T03:42:16.383Z,20.41
2023-04-07T03:43:16.338Z,20.41
2023-04-07T03:44:16.417Z,20.41
2023-04-07T03:45:16.318Z,20.41
2023-04-07T03:46:16.772Z,20.41
2023-04-07T03:47:17.255Z,20.42
2023-04-07T03:48:16.315Z,20.43
2023-04-07T03:49:16.344Z,20.41
2023-04-07T03:50:16.345Z,20.39
2023-04-07T03:51:16.342Z,20.35
2023-04-07T03:52:16.351Z,20.43
2023-04-07T03:53:16.332Z,20.36
2023-04-07T03:54:16.346Z,20.42
2023-04-07T03:55:16.369Z,20.37
2023-04-07T03:56:16.372Z,20.39
2023-04-07T03:57:16.398Z,20.41
2023-04-07T03:58:16.406Z,20.39
2023-04-07T03:59:16.397Z,20.41
2023-04-07T04:00:16.368Z,20.43
2023-04-07T04:01:16.455Z,20.39
2023-04-07T04:02:16.501Z,20.43
2023-04-07T04:03:16.483Z,20.38
2023-04-07T04:04:16.480Z,20.41
2023-04-07T04:05:16.357Z,20.44
2023-04-07T04:06:16.369Z,20.43
2023-04-07T04:07:16.420Z,20.38
2023-04-07T04:08:16.364Z,20.42
2023-04-07T04:09:16.369Z,20.44
2023-04-07T04:10:16.378Z,20.41
2023-04-07T04:11:16.402Z,20.44
2023-04-07T04:12:16.446Z,20.43
2023-04-07T04:13:16.437Z,20.38
2023-04-07T04:14:16.412Z,20.45
2023-04-07T04:15:16.441Z,20.43
2023-04-07T04:16:16.452Z,20.39
2023-04-07T04:17:16.463Z,20.41
2023-04-07T04:18:16.424Z,20.45
2023-04-07T04:19:16.409Z,20.44
2023-04-07T04:20:16.420Z,20.48
2023-04-07T04:21:16.445Z,20.45
2023-04-07T04:22:16.420Z,20.47
2023-04-07T04:23:16.427Z,20.50
2023-04-07T04:24:16.476Z,20.50
2023-04-07T04:25:16.430Z,20.48
2023-04-07T04:26:16.431Z,20.50
2023-04-07T04:27:16.417Z,20.45
2023-04-07T04:28:16.404Z,20.50
2023-04-07T04:29:16.399Z,20.50
2023-04-07T04:30:16.400Z,20.48
2023-04-07T04:31:16.443Z,20.47
2023-04-07T04:32:16.472Z,20.45
2023-04-07T04:33:16.412Z,20.48
2023-04-07T04:34:16.433Z,20.48
2023-04-07T04:35:16.415Z,20.45
2023-04-07T04:36:16.459Z,20.50
2023-04-07T04:37:16.813Z,20.48
2023-04-07T04:38:16.428Z,20.41
2023-04-07T04:39:16.406Z,20.50
2023-04-07T04:40:16.412Z,20.47
2023-04-07T04:41:16.415Z,20.45
2023-04-07T04:42:16.484Z,20.47
2023-04-07T04:43:16.445Z,20.47
2023-04-07T04:44:16.454Z,20.45
2023-04-07T04:45:16.464Z,20.44
2023-04-07T04:46:16.460Z,20.48
2023-04-07T04:47:16.516Z,20.50
2023-04-07T04:48:16.458Z,20.44
2023-04-07T04:49:16.486Z,20.47
2023-04-07T04:50:16.457Z,20.50
2023-04-07T04:51:16.491Z,20.47
2023-04-07T04:52:16.496Z,20.47
2023-04-07T04:53:16.480Z,20.48
2023-04-07T04:54:16.506Z,20.48
2023-04-07T04:55:16.474Z,20.43
2023-04-07T04:56:16.484Z,20.48
2023-04-07T04:57:16.614Z,20.44
2023-04-07T04:58:16.506Z,20.45
2023-04-07T04:59:16.499Z,20.44
2023-04-07T05:00:16.480Z,20.44
2023-04-07T05:01:16.575Z,20.47
2023-04-07T05:02:16.606Z,20.43
2023-04-07T05:03:16.672Z,20.47
2023-04-07T05:04:16.719Z,20.50
2023-04-07T05:05:16.524Z,20.47
2023-04-07T05:06:16.779Z,20.45
2023-04-07T05:07:16.557Z,20.45
2023-04-07T05:08:16.503Z,20.45
2023-04-07T05:09:16.491Z,20.47
2023-04-07T05:10:16.494Z,20.51
2023-04-07T05:11:16.496Z,20.48
2023-04-07T05:12:16.535Z,20.47
2023-04-07T05:13:16.493Z,20.51
2023-04-07T05:14:16.510Z,20.48
2023-04-07T05:15:16.500Z,20.50
2023-04-07T05:16:16.533Z,20.50
2023-04-07T05:17:16.513Z,20.50
2023-04-07T05:18:16.515Z,20.45
2023-04-07T05:19:16.533Z,20.48
2023-04-07T05:20:16.514Z,20.50
2023-04-07T05:21:16.524Z,20.50
2023-04-07T05:22:16.527Z,20.53
2023-04-07T05:23:16.542Z,20.48
2023-04-07T05:24:16.524Z,20.45
2023-04-07T05:25:16.585Z,20.51
2023-04-07T05:26:16.527Z,20.45
2023-04-07T05:27:16.551Z,20.51
2023-04-07T05:28:16.544Z,20.50
2023-04-07T05:29:16.559Z,20.48
2023-04-07T05:30:16.553Z,20.48
2023-04-07T05:31:16.594Z,20.47
2023-04-07T05:32:16.530Z,20.50
2023-04-07T05:33:16.611Z,20.51
2023-04-07T05:34:16.558Z,20.45
2023-04-07T05:35:16.566Z,20.49
2023-04-07T05:36:16.703Z,20.49
2023-04-07T05:37:16.567Z,20.48
2023-04-07T05:38:16.573Z,20.53
2023-04-07T05:39:16.590Z,20.47
2023-04-07T05:40:16.545Z,20.43
2023-04-07T05:41:16.551Z,20.49
2023-04-07T05:42:16.544Z,20.46
2023-04-07T05:43:16.582Z,20.49
2023-04-07T05:44:16.577Z,20.47
2023-04-07T05:45:16.543Z,20.46
2023-04-07T05:46:16.634Z,20.44
2023-04-07T05:47:16.578Z,20.47
2023-04-07T05:48:16.552Z,20.47
2023-04-07T05:49:19.955Z,20.46
2023-04-07T05:50:16.601Z,20.44
2023-04-07T05:51:16.556Z,20.46
2023-04-07T05:52:16.523Z,20.44
2023-04-07T05:53:16.554Z,20.43
2023-04-07T05:54:16.525Z,20.43
2023-04-07T05:55:16.549Z,20.46
2023-04-07T05:56:16.493Z,20.49
2023-04-07T05:57:16.527Z,20.43
2023-04-07T05:58:16.529Z,20.43
2023-04-07T05:59:16.550Z,20.43
2023-04-07T06:00:16.495Z,20.46
2023-04-07T06:01:16.508Z,20.49
2023-04-07T06:02:16.608Z,20.43
2023-04-07T06:03:16.669Z,20.42
2023-04-07T06:04:16.447Z,20.42
2023-04-07T06:05:16.453Z,20.46
2023-04-07T06:06:16.446Z,20.42
2023-04-07T06:07:16.448Z,20.47
2023-04-07T06:08:16.424Z,20.45
2023-04-07T06:09:16.394Z,20.49
2023-04-07T06:10:16.407Z,20.46
2023-04-07T06:11:16.397Z,20.40
2023-04-07T06:12:16.387Z,20.45
2023-04-07T06:13:16.395Z,20.43
2023-04-07T06:14:16.401Z,20.42
2023-04-07T06:15:16.359Z,20.42
2023-04-07T06:16:17.458Z,20.40
2023-04-07T06:17:16.637Z,20.46
2023-04-07T06:18:16.677Z,20.42
2023-04-07T06:19:16.739Z,20.49
2023-04-07T06:20:16.800Z,20.48
2023-04-07T06:21:16.883Z,20.43
2023-04-07T06:22:16.940Z,20.51
2023-04-07T06:23:17.780Z,20.40
2023-04-07T06:24:16.916Z,20.43
2023-04-07T06:25:16.884Z,20.48
2023-04-07T06:26:16.954Z,20.42
2023-04-07T06:27:16.932Z,20.42
2023-04-07T06:28:16.952Z,20.40
2023-04-07T06:29:16.981Z,20.45
2023-04-07T06:30:16.995Z,20.42
2023-04-07T06:31:17.093Z,20.45
2023-04-07T06:32:17.068Z,20.42
2023-04-07T06:33:17.090Z,20.48
2023-04-07T06:34:17.097Z,20.48
2023-04-07T06:35:17.152Z,20.47
2023-04-07T06:36:17.160Z,20.42
2023-04-07T06:37:17.264Z,20.44
2023-04-07T06:38:17.235Z,20.42
2023-04-07T06:39:17.257Z,20.44
2023-04-07T06:40:17.357Z,20.45
2023-04-07T06:41:17.357Z,20.44
2023-04-07T06:42:17.368Z,20.44
2023-04-07T06:43:17.446Z,20.42
2023-04-07T06:44:17.555Z,20.42
2023-04-07T06:45:17.520Z,20.47
2023-04-07T06:46:17.637Z,20.45
2023-04-07T06:47:17.622Z,20.44
2023-04-07T06:48:17.671Z,20.44
2023-04-07T06:49:17.740Z,20.45
2023-04-07T06:50:17.766Z,20.39
2023-04-07T06:51:17.848Z,20.43
2023-04-07T06:52:17.902Z,20.43
2023-04-07T06:53:17.921Z,20.38
2023-04-07T06:54:18.005Z,20.47
2023-04-07T06:55:18.063Z,20.45
2023-04-07T06:56:18.127Z,20.44
2023-04-07T06:57:18.198Z,20.41
2023-04-07T06:58:18.229Z,20.43
2023-04-07T06:59:18.287Z,20.41
2023-04-07T07:00:18.389Z,20.43
2023-04-07T07:01:18.444Z,20.39
2023-04-07T07:02:18.748Z,20.40
2023-04-07T07:03:18.674Z,20.41
2023-04-07T07:04:18.664Z,20.38
2023-04-07T07:05:18.697Z,20.44
2023-04-07T07:06:18.730Z,20.38
2023-04-07T07:07:18.765Z,20.43
2023-04-07T07:08:18.848Z,20.40
2023-04-07T07:09:18.903Z,20.40
2023-04-07T07:10:18.964Z,20.43
2023-04-07T07:11:18.980Z,20.33
2023-04-07T07:12:19.046Z,20.40
2023-04-07T07:13:19.082Z,20.38
2023-04-07T07:14:19.138Z,20.38
2023-04-07T07:15:19.270Z,20.33
2023-04-07T07:16:19.312Z,20.39
2023-04-07T07:17:19.329Z,20.36
2023-04-07T07:18:19.387Z,20.34
2023-04-07T07:19:19.431Z,20.36
2023-04-07T07:20:19.478Z,20.29
2023-04-07T07:21:19.529Z,20.33
2023-04-07T07:22:19.592Z,20.30
2023-04-07T07:23:19.640Z,20.36
2023-04-07T07:24:19.679Z,20.33
2023-04-07T07:25:19.744Z,20.33
2023-04-07T07:26:19.781Z,20.32
2023-04-07T07:27:19.860Z,20.29
2023-04-07T07:28:19.864Z,20.35
2023-04-07T07:29:19.924Z,20.29
2023-04-07T07:30:19.991Z,20.26
2023-04-07T07:31:20.073Z,20.26
2023-04-07T07:32:20.094Z,20.32
2023-04-07T07:33:20.109Z,20.26
2023-04-07T07:34:20.126Z,20.29
2023-04-07T07:35:20.192Z,20.23
2023-04-07T07:36:20.247Z,20.23
2023-04-07T07:37:20.237Z,20.27
2023-04-07T07:38:20.308Z,20.27
2023-04-07T07:39:20.321Z,20.25
2023-04-07T07:40:20.404Z,20.25
2023-04-07T07:41:20.462Z,20.25
2023-04-07T07:42:20.478Z,20.18
2023-04-07T07:43:20.495Z,20.21
2023-04-07T07:44:20.591Z,20.18
2023-04-07T07:45:20.590Z,20.21
2023-04-07T07:46:20.735Z,20.19
2023-04-07T07:47:20.697Z,20.11
2023-04-07T07:48:20.710Z,20.13
2023-04-07T07:49:20.765Z,20.12
2023-04-07T07:50:20.781Z,20.09
2023-04-07T07:51:20.806Z,20.09
2023-04-07T07:52:20.821Z,20.13
2023-04-07T07:53:20.838Z,20.09
2023-04-07T07:54:20.886Z,20.07
2023-04-07T07:55:20.901Z,20.09
2023-04-07T07:56:20.965Z,20.06
2023-04-07T07:57:20.964Z,20.12
2023-04-07T07:58:20.991Z,20.10
2023-04-07T07:59:20.994Z,20.09
2023-04-07T08:00:21.025Z,20.09
2023-04-07T08:01:21.077Z,20.09
2023-04-07T08:02:21.313Z,20.10
2023-04-07T08:03:21.158Z,20.06
2023-04-07T08:04:21.181Z,20.12
2023-04-07T08:05:21.379Z,20.07
2023-04-07T08:06:21.221Z,20.07
2023-04-07T08:07:21.226Z,20.12
2023-04-07T08:08:21.229Z,20.09
2023-04-07T08:09:21.286Z,20.10
2023-04-07T08:10:21.294Z,20.10
2023-04-07T08:11:21.334Z,20.06
2023-04-07T08:12:21.351Z,20.03
2023-04-07T08:13:21.357Z,20.03
2023-04-07T08:14:21.431Z,20.03
2023-04-07T08:15:21.396Z,20.02
2023-04-07T08:16:21.568Z,20.00
2023-04-07T08:17:21.434Z,19.95
2023-04-07T08:18:21.422Z,20.00
2023-04-07T08:19:21.462Z,19.91
2023-04-07T08:20:21.505Z,19.94
2023-04-07T08:21:21.489Z,19.92
2023-04-07T08:22:21.517Z,19.92
2023-04-07T08:23:21.485Z,19.94
2023-04-07T08:24:21.521Z,19.95
2023-04-07T08:25:21.522Z,19.89
2023-04-07T08:26:21.493Z,19.91
2023-04-07T08:27:21.513Z,19.88
2023-04-07T08:28:21.589Z,19.85
2023-04-07T08:29:21.562Z,19.84
2023-04-07T08:30:21.548Z,19.84
2023-04-07T08:31:21.606Z,19.80
2023-04-07T08:32:21.593Z,19.82
2023-04-07T08:33:21.553Z,19.75
2023-04-07T08:34:21.833Z,19.81
2023-04-07T08:35:21.565Z,19.83
2023-04-07T08:36:21.587Z,19.78
2023-04-07T08:37:21.563Z,19.81
2023-04-07T08:38:21.549Z,19.74
2023-04-07T08:39:22.414Z,19.73
2023-04-07T08:40:21.554Z,19.74
2023-04-07T08:41:21.551Z,19.70
2023-04-07T08:42:21.593Z,19.69
2023-04-07T08:43:21.589Z,19.66
2023-04-07T08:44:21.634Z,19.68
2023-04-07T08:45:21.653Z,19.70
2023-04-07T08:46:21.768Z,19.73
2023-04-07T08:47:21.750Z,19.70
2023-04-07T08:48:21.799Z,19.69
2023-04-07T08:49:21.740Z,19.58
2023-04-07T08:50:21.803Z,19.64
2023-04-07T08:51:21.859Z,19.63
2023-04-07T08:52:21.910Z,19.62
2023-04-07T08:53:21.982Z,19.53
2023-04-07T08:54:22.021Z,19.64
2023-04-07T08:55:22.093Z,19.58
2023-04-07T08:56:22.180Z,19.50
2023-04-07T08:57:22.227Z,19.52
2023-04-07T08:58:22.314Z,19.52
2023-04-07T08:59:22.370Z,19.49
2023-04-07T09:00:22.426Z,19.53
2023-04-07T09:01:22.478Z,19.53
2023-04-07T09:02:22.575Z,19.45
2023-04-07T09:03:22.972Z,19.46
2023-04-07T09:04:22.764Z,19.56
2023-04-07T09:05:22.707Z,19.47
2023-04-07T09:06:22.754Z,19.52
2023-04-07T09:07:22.821Z,19.50
2023-04-07T09:08:22.908Z,19.50
2023-04-07T09:09:22.898Z,19.52
2023-04-07T09:10:23.011Z,19.53
2023-04-07T09:11:23.034Z,19.52
2023-04-07T09:12:23.098Z,19.52
2023-04-07T09:13:23.170Z,19.52
2023-04-07T09:14:23.246Z,19.52
2023-04-07T09:15:23.271Z,19.47
2023-04-07T09:16:23.425Z,19.47
2023-04-07T09:17:23.416Z,19.49
2023-04-07T09:18:23.438Z,19.51
2023-04-07T09:19:23.489Z,19.46
2023-04-07T09:20:23.553Z,19.48
2023-04-07T09:21:23.646Z,19.48
2023-04-07T09:22:23.643Z,19.43
2023-04-07T09:23:23.729Z,19.47
2023-04-07T09:24:23.755Z,19.47
2023-04-07T09:25:23.766Z,19.47
2023-04-07T09:26:24.360Z,19.48
2023-04-07T09:27:23.867Z,19.44
2023-04-07T09:28:23.973Z,19.44
2023-04-07T09:29:24.416Z,19.42
2023-04-07T09:30:23.944Z,19.38
2023-04-07T09:31:23.998Z,19.38
2023-04-07T09:32:24.019Z,19.44
2023-04-07T09:33:24.032Z,19.44
2023-04-07T09:34:24.069Z,19.41
2023-04-07T09:35:24.093Z,19.42
2023-04-07T09:36:24.102Z,19.41
2023-04-07T09:37:24.101Z,19.40
2023-04-07T09:38:24.118Z,19.40
2023-04-07T09:39:24.166Z,19.39
2023-04-07T09:40:24.159Z,19.37
2023-04-07T09:41:24.235Z,19.40
2023-04-07T09:42:24.885Z,19.34
2023-04-07T09:43:24.241Z,19.37
2023-04-07T09:44:24.311Z,19.36
2023-04-07T09:45:33.941Z,19.40
2023-04-07T09:46:26.189Z,19.40
2023-04-07T09:47:24.957Z,19.37
2023-04-07T09:48:24.294Z,19.41
2023-04-07T09:49:24.304Z,19.43
2023-04-07T09:50:24.226Z,19.39
2023-04-07T09:51:24.200Z,19.36
2023-04-07T09:52:24.228Z,19.44
2023-04-07T09:53:24.196Z,19.43
2023-04-07T09:54:24.243Z,19.41
2023-04-07T09:55:24.184Z,19.45
2023-04-07T09:56:24.190Z,19.42
2023-04-07T09:57:24.191Z,19.39
2023-04-07T09:58:24.169Z,19.33
2023-04-07T09:59:24.187Z,19.39
2023-04-07T10:00:24.156Z,19.42
2023-04-07T10:01:24.198Z,19.33
2023-04-07T10:02:24.200Z,19.36
2023-04-07T10:03:24.222Z,19.33
2023-04-07T10:04:24.139Z,19.29
2023-04-07T10:05:24.108Z,19.36
2023-04-07T10:06:24.107Z,19.43
2023-04-07T10:07:24.152Z,19.39
2023-04-07T10:08:24.120Z,19.33
2023-04-07T10:09:24.108Z,19.34
2023-04-07T10:10:24.093Z,19.32
2023-04-07T10:11:24.073Z,19.38
2023-04-07T10:12:24.074Z,19.25
2023-04-07T10:13:24.113Z,19.32
2023-04-07T10:14:24.052Z,19.38
2023-04-07T10:15:24.057Z,19.29
2023-04-07T10:16:24.039Z,19.29
2023-04-07T10:17:24.026Z,19.26
2023-04-07T10:18:24.046Z,19.29
2023-04-07T10:19:24.082Z,19.27
2023-04-07T10:20:24.144Z,19.32
2023-04-07T10:21:24.125Z,19.43
2023-04-07T10:22:24.126Z,19.40
2023-04-07T10:23:24.163Z,19.35
2023-04-07T10:24:24.216Z,19.36
2023-04-07T10:25:24.264Z,19.41
2023-04-07T10:26:24.257Z,19.40
2023-04-07T10:27:24.256Z,19.49
2023-04-07T10:28:24.331Z,19.48
2023-04-07T10:29:24.271Z,19.48
2023-04-07T10:30:24.892Z,19.46
2023-04-07T10:31:24.325Z,19.51
2023-04-07T10:32:24.321Z,19.48
2023-04-07T10:33:24.311Z,19.51
2023-04-07T10:34:24.313Z,19.46
2023-04-07T10:35:24.395Z,19.51
2023-04-07T10:36:24.332Z,19.52
2023-04-07T10:37:24.331Z,19.53
2023-04-07T10:38:24.296Z,19.62
2023-04-07T10:39:24.337Z,19.55
2023-04-07T10:40:24.302Z,19.53
2023-04-07T10:41:24.364Z,19.54
2023-04-07T10:42:24.913Z,19.55
2023-04-07T10:43:24.337Z,19.52
2023-04-07T10:44:24.293Z,19.45
2023-04-07T10:45:24.365Z,19.54
2023-04-07T10:46:24.315Z,19.52
2023-04-07T10:47:24.417Z,19.58
2023-04-07T10:48:24.320Z,19.61
2023-04-07T10:49:24.272Z,19.65
2023-04-07T10:50:24.295Z,19.64
2023-04-07T10:51:24.327Z,19.56
2023-04-07T10:52:24.283Z,19.64
2023-04-07T10:53:24.273Z,19.59
2023-04-07T10:54:24.276Z,19.58
2023-04-07T10:55:24.286Z,19.61
2023-04-07T10:56:24.280Z,19.58
2023-04-07T10:57:24.291Z,19.61
2023-04-07T10:58:24.365Z,19.61
2023-04-07T10:59:24.326Z,19.56
2023-04-07T11:00:24.903Z,19.57
2023-04-07T11:01:24.339Z,19.55
2023-04-07T11:02:24.478Z,19.55
2023-04-07T11:03:26.007Z,19.55
2023-04-07T11:04:24.386Z,19.57
2023-04-07T11:05:24.381Z,19.54
2023-04-07T11:06:24.318Z,19.52
2023-04-07T11:07:24.323Z,19.57
2023-04-07T11:08:24.330Z,19.61
2023-04-07T11:09:24.341Z,19.57
2023-04-07T11:10:24.398Z,19.60
2023-04-07T11:11:24.403Z,19.58
2023-04-07T11:12:24.405Z,19.58
2023-04-07T11:13:24.378Z,19.51
2023-04-07T11:14:24.398Z,19.54
2023-04-07T11:15:24.455Z,19.53
2023-04-07T11:16:24.460Z,19.51
2023-04-07T11:17:24.512Z,19.50
2023-04-07T11:18:24.469Z,19.53
2023-04-07T11:19:24.445Z,19.49
2023-04-07T11:20:24.497Z,19.50
2023-04-07T11:21:24.474Z,19.53
2023-04-07T11:22:29.813Z,19.45
2023-04-07T11:23:25.482Z,19.47
2023-04-07T11:24:24.432Z,19.50
2023-04-07T11:25:24.481Z,19.48
2023-04-07T11:26:24.458Z,19.53
2023-04-07T11:27:24.395Z,19.51
2023-04-07T11:28:24.397Z,19.51
2023-04-07T11:29:24.447Z,19.50
2023-04-07T11:30:24.404Z,19.50
2023-04-07T11:31:24.484Z,19.47
2023-04-07T11:32:25.901Z,19.51
2023-04-07T11:33:24.400Z,19.50
2023-04-07T11:34:24.367Z,19.50
2023-04-07T11:35:24.373Z,19.50
2023-04-07T11:36:24.337Z,19.51
2023-04-07T11:37:24.368Z,19.54
2023-04-07T11:38:24.445Z,19.48
2023-04-07T11:39:24.342Z,19.53
2023-04-07T11:40:24.370Z,19.51
2023-04-07T11:41:24.368Z,19.54
2023-04-07T11:42:24.298Z,19.50
2023-04-07T11:43:24.308Z,19.47
2023-04-07T11:44:24.293Z,19.46
2023-04-07T11:45:24.314Z,19.39
2023-04-07T11:46:24.345Z,19.42
2023-04-07T11:47:24.286Z,19.45
2023-04-07T11:48:24.319Z,19.35
2023-04-07T11:49:24.293Z,19.38
2023-04-07T11:50:24.257Z,19.34
2023-04-07T11:51:24.279Z,19.29
2023-04-07T11:52:24.232Z,19.28
2023-04-07T11:53:24.268Z,19.34
2023-04-07T11:54:24.266Z,19.35
2023-04-07T11:55:24.323Z,19.32
2023-04-07T11:56:24.273Z,19.30
2023-04-07T11:57:24.289Z,19.36
2023-04-07T11:58:24.362Z,19.38
2023-04-07T11:59:24.262Z,19.36
2023-04-07T12:00:24.174Z,19.40
2023-04-07T12:01:24.186Z,19.40
2023-04-07T12:02:24.315Z,19.45
2023-04-07T12:03:24.321Z,19.42
2023-04-07T12:04:24.310Z,19.40
2023-04-07T12:05:24.172Z,19.39
2023-04-07T12:06:24.140Z,19.40
2023-04-07T12:07:24.941Z,19.40
2023-04-07T12:08:24.113Z,19.39
2023-04-07T12:09:24.143Z,19.46
2023-04-07T12:10:24.118Z,19.41
2023-04-07T12:11:24.115Z,19.47
2023-04-07T12:12:24.100Z,19.41
2023-04-07T12:13:24.137Z,19.44
2023-04-07T12:14:24.087Z,19.43
2023-04-07T12:15:24.124Z,19.46
2023-04-07T12:16:24.163Z,19.43
2023-04-07T12:17:24.161Z,19.43
2023-04-07T12:18:24.099Z,19.40
2023-04-07T12:19:24.158Z,19.42
2023-04-07T12:20:24.124Z,19.45
2023-04-07T12:21:24.176Z,19.44
2023-04-07T12:22:24.112Z,19.45
2023-04-07T12:23:24.149Z,19.38
2023-04-07T12:24:24.259Z,19.47
2023-04-07T12:25:24.139Z,19.51
2023-04-07T12:26:24.140Z,19.50
2023-04-07T12:27:35.888Z,19.47
2023-04-07T12:28:25.925Z,19.44
2023-04-07T12:29:24.185Z,19.48
2023-04-07T12:30:24.138Z,19.45
2023-04-07T12:31:24.224Z,19.47
2023-04-07T12:32:24.167Z,19.53
2023-04-07T12:33:24.147Z,19.51
2023-04-07T12:34:24.102Z,19.52
2023-04-07T12:35:24.201Z,19.51
2023-04-07T12:36:24.092Z,19.51
2023-04-07T12:37:24.060Z,19.51
2023-04-07T12:38:24.058Z,19.57
2023-04-07T12:39:24.077Z,19.54
2023-04-07T12:40:24.053Z,19.52
2023-04-07T12:41:24.073Z,19.51
2023-04-07T12:42:24.027Z,19.51
2023-04-07T12:43:24.028Z,19.55
2023-04-07T12:44:24.030Z,19.56
2023-04-07T12:45:24.044Z,19.56
2023-04-07T12:46:24.123Z,19.59
2023-04-07T12:47:24.118Z,19.54
2023-04-07T12:48:24.009Z,19.58
2023-04-07T12:49:24.002Z,19.64
2023-04-07T12:50:24.004Z,19.64
2023-04-07T12:51:24.052Z,19.64
2023-04-07T12:52:23.989Z,19.61